Time;durP1;ratioP1;P1;durP2;ratioP2;P2;SDS_P1;SDS_P2;PMS_P1;PMS_P2;Temp;Humidity;BMP_temperature;BMP_pressure;BME280_temperature;BME280_humidity;BME280_pressure;Samples;Min_cycle;Max_cycle;Signal;HPM_P1;HPM_P2
2022/07/10 00:01:26;;;;;;;7.63;7.07;;;16.60;99.90;;;;;;4972204;28;20727;-72
2022/07/10 00:03:51;;;;;;;7.30;6.70;;;16.50;99.90;;;;;;4972298;28;20318;-71
2022/07/10 00:06:17;;;;;;;6.07;5.57;;;16.50;99.90;;;;;;4972816;28;20638;-73
2022/07/10 00:08:42;;;;;;;6.67;6.17;;;16.50;99.90;;;;;;4972749;28;20184;-74
2022/07/10 00:11:09;;;;;;;8.50;6.30;;;16.50;99.90;;;;;;4971925;28;20212;-74
2022/07/10 00:13:35;;;;;;;6.80;6.30;;;16.50;99.90;;;;;;4972627;28;20363;-74
2022/07/10 00:16:01;;;;;;;6.30;5.80;;;16.50;99.90;;;;;;4971780;28;20889;-74
2022/07/10 00:18:30;;;;;;;6.37;5.97;;;16.50;99.90;;;;;;4972111;28;20470;-74
2022/07/10 00:20:55;;;;;;;6.57;6.00;;;16.50;99.90;;;;;;4971842;28;20423;-74
2022/07/10 00:23:21;;;;;;;6.40;6.00;;;16.40;99.90;;;;;;4972319;28;20426;-74
2022/07/10 00:25:46;;;;;;;14.90;5.60;;;16.50;99.90;;;;;;4972209;28;20196;-74
2022/07/10 00:28:12;;;;;;;6.60;6.10;;;16.50;99.90;;;;;;4971432;28;20555;-73
2022/07/10 00:30:38;;;;;;;5.43;5.00;;;16.50;99.90;;;;;;4971706;28;20210;-74
2022/07/10 00:33:04;;;;;;;5.33;4.93;;;16.50;99.90;;;;;;4971971;28;20270;-74
2022/07/10 00:35:29;;;;;;;6.23;5.63;;;16.50;99.90;;;;;;4972172;28;20187;-74
2022/07/10 00:37:55;;;;;;;6.37;5.90;;;16.50;99.90;;;;;;4972200;28;20413;-75
2022/07/10 00:40:20;;;;;;;5.33;4.97;;;16.50;99.90;;;;;;4971876;28;20176;-74
2022/07/10 00:42:46;;;;;;;5.63;5.17;;;16.50;99.90;;;;;;4970979;28;20200;-74
2022/07/10 00:45:11;;;;;;;6.33;5.90;;;16.50;99.90;;;;;;4971911;28;20186;-74
2022/07/10 00:47:38;;;;;;;6.97;6.33;;;16.50;99.90;;;;;;4972073;28;20172;-74
2022/07/10 00:50:05;;;;;;;5.87;5.37;;;16.40;99.90;;;;;;4971908;28;20200;-74
2022/07/10 00:52:30;;;;;;;7.10;5.73;;;16.50;99.90;;;;;;4970413;28;20459;-72
2022/07/10 00:54:57;;;;;;;7.13;5.30;;;16.50;99.90;;;;;;4971332;28;20447;-74
2022/07/10 00:57:23;;;;;;;5.77;5.17;;;16.40;99.90;;;;;;4971928;28;20234;-74
2022/07/10 00:59:49;;;;;;;5.43;5.07;;;16.40;99.90;;;;;;4971805;28;20900;-74
2022/07/10 02:32:06;;;;;;;24.87;15.20;;;15.90;99.90;;;;;;5419593;23;20491;-73
2022/07/10 02:34:31;;;;;;;17.33;14.87;;;16.00;99.90;;;;;;4974391;28;20438;-75
2022/07/10 02:36:56;;;;;;;16.00;14.07;;;16.00;99.90;;;;;;4966608;28;20432;-76
2022/07/10 02:39:23;;;;;;;15.73;14.13;;;16.00;99.90;;;;;;4975311;28;20675;-76
2022/07/10 02:41:48;;;;;;;16.43;14.83;;;16.00;99.90;;;;;;4974614;28;20192;-75
2022/07/10 02:44:14;;;;;;;16.97;14.93;;;16.00;99.90;;;;;;4975443;28;20420;-75
2022/07/10 02:46:39;;;;;;;18.00;15.30;;;16.00;99.90;;;;;;4975377;28;20191;-75
2022/07/10 02:49:05;;;;;;;19.93;16.17;;;16.00;99.90;;;;;;4974943;28;20226;-75
2022/07/10 02:51:30;;;;;;;18.13;15.70;;;16.00;99.90;;;;;;4973537;28;20204;-71
2022/07/10 02:53:56;;;;;;;19.37;15.80;;;16.00;99.90;;;;;;4973769;28;20176;-73
2022/07/10 02:56:22;;;;;;;20.80;16.50;;;16.00;99.90;;;;;;4974278;28;20255;-73
2022/07/10 02:58:47;;;;;;;22.23;18.03;;;16.00;99.90;;;;;;4974041;28;20186;-73
2022/07/10 03:01:13;;;;;;;18.00;16.13;;;15.90;99.90;;;;;;4972875;28;20577;-73
2022/07/10 03:03:38;;;;;;;26.37;18.57;;;15.90;99.90;;;;;;4973764;28;20700;-73
2022/07/10 03:06:04;;;;;;;20.33;16.97;;;15.80;99.90;;;;;;4974245;28;20540;-74
2022/07/10 03:08:29;;;;;;;19.67;16.50;;;15.80;99.90;;;;;;4974210;28;20427;-73
2022/07/10 03:10:55;;;;;;;19.50;17.23;;;15.80;99.90;;;;;;4973210;28;20214;-74
2022/07/10 03:13:20;;;;;;;22.90;18.17;;;15.80;99.90;;;;;;4973365;28;20187;-73
2022/07/10 03:15:46;;;;;;;22.23;15.93;;;15.80;99.90;;;;;;4973796;28;20527;-74
2022/07/10 03:18:11;;;;;;;17.00;15.30;;;15.80;99.90;;;;;;4974065;28;20302;-73
2022/07/10 03:20:37;;;;;;;19.07;17.00;;;15.80;99.90;;;;;;4973401;28;20179;-75
2022/07/10 03:23:02;;;;;;;19.43;17.47;;;15.80;99.90;;;;;;4973365;28;20192;-76
2022/07/10 03:25:28;;;;;;;20.93;17.37;;;15.70;99.90;;;;;;4973592;28;20190;-75
2022/07/10 03:27:53;;;;;;;25.77;16.47;;;15.70;99.90;;;;;;4973527;28;20577;-75
2022/07/10 03:30:19;;;;;;;21.30;17.87;;;15.70;99.90;;;;;;4973798;28;20254;-75
2022/07/10 03:32:45;;;;;;;21.07;18.70;;;15.70;99.90;;;;;;4971932;28;20316;-75
2022/07/10 03:35:11;;;;;;;17.90;16.00;;;15.70;99.90;;;;;;4973522;28;20247;-72
2022/07/10 03:37:36;;;;;;;19.40;17.50;;;15.60;99.90;;;;;;4973572;28;20182;-75
2022/07/10 03:40:02;;;;;;;22.23;18.43;;;15.70;99.90;;;;;;4973350;28;20242;-75
2022/07/10 03:42:27;;;;;;;18.70;16.70;;;15.60;99.90;;;;;;4973054;28;20202;-75
2022/07/10 03:44:53;;;;;;;20.90;18.23;;;15.60;99.90;;;;;;4973080;28;20750;-75
2022/07/10 03:47:18;;;;;;;19.33;17.30;;;15.60;99.90;;;;;;4973232;28;20190;-75
2022/07/10 03:49:44;;;;;;;21.00;18.07;;;15.60;99.90;;;;;;4972902;28;20200;-75
2022/07/10 03:52:09;;;;;;;19.43;17.43;;;15.50;99.90;;;;;;4972766;28;20219;-75
2022/07/10 03:54:35;;;;;;;18.97;15.93;;;15.50;99.90;;;;;;4973047;28;20172;-75
2022/07/10 03:59:44;;;;;;;19.13;17.10;;;15.60;99.90;;;;;;4972879;28;20606;-76
2022/07/10 04:02:10;;;;;;;19.77;17.37;;;15.60;99.90;;;;;;4972554;28;20439;-75
2022/07/10 04:04:35;;;;;;;21.53;17.67;;;15.60;99.90;;;;;;4972771;28;20191;-77
2022/07/10 04:07:01;;;;;;;19.27;16.67;;;15.60;99.90;;;;;;4973003;28;20656;-75
2022/07/10 04:09:27;;;;;;;18.13;16.33;;;15.60;99.90;;;;;;4969629;28;20318;-75
2022/07/10 04:11:52;;;;;;;17.23;15.53;;;15.70;99.90;;;;;;4972211;28;20443;-75
2022/07/10 04:14:18;;;;;;;17.70;15.10;;;15.60;99.90;;;;;;4972859;28;20191;-75
2022/07/10 04:16:44;;;;;;;16.53;15.00;;;15.70;99.90;;;;;;4972942;28;20675;-73
2022/07/10 04:19:09;;;;;;;17.10;15.30;;;15.80;99.90;;;;;;4972820;28;20218;-75
2022/07/10 04:21:35;;;;;;;15.20;13.80;;;15.70;99.90;;;;;;4972285;28;20266;-76
2022/07/10 04:24:00;;;;;;;14.40;12.87;;;15.80;99.90;;;;;;4972345;28;20736;-75
2022/07/10 04:26:26;;;;;;;16.40;14.37;;;15.80;99.90;;;;;;4972636;28;20311;-74
2022/07/10 04:28:51;;;;;;;16.17;13.63;;;15.80;99.90;;;;;;4972701;28;20231;-76
2022/07/10 04:31:17;;;;;;;17.10;13.80;;;15.80;99.90;;;;;;4971845;28;20291;-75
2022/07/10 04:33:42;;;;;;;15.87;13.00;;;15.80;99.90;;;;;;4971887;28;20209;-73
2022/07/10 04:36:08;;;;;;;14.77;13.20;;;15.80;99.90;;;;;;4972600;28;20182;-75
2022/07/10 04:38:33;;;;;;;14.17;12.80;;;15.90;99.90;;;;;;4972683;28;20198;-75
2022/07/10 04:40:59;;;;;;;14.20;12.37;;;15.80;99.90;;;;;;4971864;28;20282;-75
2022/07/10 04:43:25;;;;;;;17.70;12.43;;;15.80;99.90;;;;;;4971659;28;20682;-75
2022/07/10 04:45:50;;;;;;;14.43;12.87;;;15.80;99.90;;;;;;4971716;28;20227;-75
2022/07/10 04:48:16;;;;;;;14.07;12.70;;;15.70;99.90;;;;;;4972434;28;20267;-75
2022/07/10 04:50:41;;;;;;;12.20;11.00;;;15.70;99.90;;;;;;4971557;28;20747;-76
2022/07/10 04:53:07;;;;;;;14.17;10.67;;;15.80;99.90;;;;;;4972473;28;20263;-75
2022/07/10 04:55:32;;;;;;;13.63;10.40;;;15.80;99.90;;;;;;4972036;28;20176;-75
2022/07/10 04:57:58;;;;;;;13.37;10.33;;;15.80;99.90;;;;;;4972121;28;20187;-75
2022/07/10 05:00:24;;;;;;;10.10;9.20;;;15.80;99.90;;;;;;4971813;28;20554;-72
2022/07/10 05:02:49;;;;;;;9.87;9.07;;;15.90;99.90;;;;;;4971663;28;20870;-75
2022/07/10 05:05:15;;;;;;;8.90;7.90;;;16.00;99.90;;;;;;4972045;28;20234;-75
2022/07/10 05:07:41;;;;;;;8.60;7.70;;;16.20;99.90;;;;;;4972034;28;20184;-75
2022/07/10 05:10:07;;;;;;;8.40;7.70;;;16.30;99.90;;;;;;4971369;28;20291;-74
2022/07/10 05:12:32;;;;;;;8.10;6.53;;;16.40;99.90;;;;;;4971284;28;20323;-76
2022/07/10 05:14:59;;;;;;;7.43;6.77;;;16.50;99.90;;;;;;4971675;28;20186;-75
2022/07/10 05:17:26;;;;;;;9.53;6.60;;;16.60;99.90;;;;;;4971996;28;20230;-75
2022/07/10 05:19:53;;;;;;;7.40;6.17;;;16.60;99.90;;;;;;4971812;28;20821;-76
2022/07/10 05:22:18;;;;;;;7.33;6.27;;;16.60;99.90;;;;;;4970954;28;20467;-75
2022/07/10 05:24:44;;;;;;;7.23;5.73;;;16.80;99.90;;;;;;4971456;28;20458;-72
2022/07/10 05:27:09;;;;;;;8.93;4.97;;;17.10;99.90;;;;;;4971970;28;20176;-75
2022/07/10 05:29:35;;;;;;;5.47;4.97;;;17.40;99.90;;;;;;4971647;28;20696;-74
2022/07/10 05:32:00;;;;;;;5.20;4.70;;;17.60;99.90;;;;;;4970845;28;20220;-75
2022/07/10 05:34:26;;;;;;;5.93;4.33;;;17.70;99.90;;;;;;4971596;28;20176;-75
2022/07/10 05:36:51;;;;;;;4.80;4.47;;;17.90;99.90;;;;;;4971381;28;20219;-75
2022/07/10 05:39:17;;;;;;;3.90;3.60;;;18.20;99.90;;;;;;4971646;28;20178;-75
2022/07/10 05:41:43;;;;;;;6.90;3.97;;;18.30;99.90;;;;;;4970889;28;20195;-72
2022/07/10 05:44:08;;;;;;;3.20;2.90;;;18.50;99.90;;;;;;4971433;28;20176;-75
2022/07/10 05:46:34;;;;;;;5.83;3.33;;;18.80;99.90;;;;;;4971757;28;20180;-75
2022/07/10 05:48:59;;;;;;;8.30;4.00;;;18.90;99.90;;;;;;4971340;28;20179;-72
2022/07/10 05:51:25;;;;;;;4.97;3.10;;;19.10;99.90;;;;;;4970466;28;20196;-75
2022/07/10 05:53:50;;;;;;;3.03;2.83;;;19.00;99.90;;;;;;4971204;28;20183;-75
2022/07/10 05:56:16;;;;;;;2.97;2.70;;;18.90;99.90;;;;;;4973131;28;20266;-75
2022/07/10 05:58:41;;;;;;;6.70;5.50;;;18.60;99.90;;;;;;4975126;28;20605;-75
2022/07/10 06:01:07;;;;;;;4.53;2.80;;;18.40;99.90;;;;;;4974218;28;20250;-75
2022/07/10 06:03:32;;;;;;;7.17;3.10;;;18.20;99.90;;;;;;4975428;28;20224;-75
2022/07/10 06:05:59;;;;;;;3.80;3.10;;;17.90;99.90;;;;;;4975140;28;20191;-76
2022/07/10 06:08:25;;;;;;;4.30;3.30;;;17.90;99.90;;;;;;4975374;28;20226;-75
2022/07/10 06:10:50;;;;;;;2.60;2.40;;;17.60;99.90;;;;;;4973850;28;20462;-75
2022/07/10 06:13:16;;;;;;;3.43;3.13;;;17.60;99.90;;;;;;4975441;28;20183;-75
2022/07/10 06:15:41;;;;;;;9.60;3.30;;;17.70;99.90;;;;;;4975087;28;20539;-75
2022/07/10 06:18:07;;;;;;;8.23;2.77;;;17.70;99.90;;;;;;4975269;28;20176;-76
2022/07/10 06:20:32;;;;;;;8.20;2.30;;;17.80;99.90;;;;;;4974516;28;20574;-72
2022/07/10 06:22:58;;;;;;;5.13;2.57;;;17.90;99.90;;;;;;4973633;28;20204;-75
2022/07/10 06:25:23;;;;;;;3.63;2.50;;;18.00;99.90;;;;;;4974768;28;20195;-73
2022/07/10 06:27:49;;;;;;;6.13;2.70;;;18.00;99.90;;;;;;4974661;28;20183;-75
2022/07/10 06:30:15;;;;;;;3.77;2.23;;;17.90;99.90;;;;;;4974745;28;20223;-75
2022/07/10 06:32:41;;;;;;;6.50;2.80;;;17.80;99.90;;;;;;4973515;28;20212;-75
2022/07/10 06:35:07;;;;;;;6.60;2.70;;;17.70;99.90;;;;;;4974593;28;20552;-75
2022/07/10 06:37:33;;;;;;;3.77;2.20;;;17.70;99.90;;;;;;4974792;28;20416;-75
2022/07/10 06:39:59;;;;;;;2.40;2.20;;;17.80;99.90;;;;;;4974655;28;20851;-75
2022/07/10 06:42:24;;;;;;;4.40;2.87;;;17.90;99.90;;;;;;4973922;28;20439;-73
2022/07/10 06:44:50;;;;;;;5.90;3.00;;;18.10;99.90;;;;;;4976812;28;20175;-75
2022/07/10 06:50:03;;;;;;;2.77;2.57;;;18.10;99.90;;;;;;4977133;28;20199;-76
2022/07/10 06:52:32;;;;;;;2.53;2.30;;;17.90;99.90;;;;;;4975473;28;20458;-74
2022/07/10 06:54:57;;;;;;;2.90;2.13;;;17.90;99.90;;;;;;4974304;28;20419;-76
2022/07/10 06:57:23;;;;;;;3.37;2.40;;;18.00;99.90;;;;;;4974423;28;20426;-72
2022/07/10 06:59:48;;;;;;;2.87;2.50;;;18.00;99.90;;;;;;4974162;28;20656;-75
2022/07/10 07:02:14;;;;;;;5.80;1.97;;;18.00;99.90;;;;;;4973802;28;20196;-76
2022/07/10 07:04:39;;;;;;;3.43;2.20;;;18.00;99.90;;;;;;4974246;28;20184;-75
2022/07/10 07:07:05;;;;;;;2.80;2.40;;;18.00;99.90;;;;;;4973701;28;20592;-75
2022/07/10 07:09:30;;;;;;;2.00;1.83;;;18.20;99.90;;;;;;4973835;28;20240;-76
2022/07/10 07:11:56;;;;;;;2.57;2.30;;;18.30;99.90;;;;;;4973308;28;20199;-76
2022/07/10 07:14:21;;;;;;;2.90;2.03;;;18.30;99.90;;;;;;4974254;28;20176;-75
2022/07/10 07:16:57;;;;;;;4.93;2.63;;;18.40;99.90;;;;;;4974021;28;20177;-74
2022/07/10 07:19:30;;;;;;;4.77;1.87;;;18.30;99.90;;;;;;4974026;28;20569;-73
2022/07/10 07:24:42;;;;;;;3.93;2.03;;;18.20;99.90;;;;;;4973728;28;20418;-75
2022/07/10 07:27:07;;;;;;;2.30;1.67;;;18.30;99.90;;;;;;4974061;28;20929;-75
2022/07/10 07:29:32;;;;;;;2.80;2.20;;;18.30;99.90;;;;;;4973307;28;20465;-75
2022/07/10 07:31:58;;;;;;;2.53;2.30;;;18.40;99.90;;;;;;4972783;28;20273;-75
2022/07/10 07:34:24;;;;;;;2.07;1.63;;;18.40;99.90;;;;;;4973684;28;20165;-73
2022/07/10 07:36:50;;;;;;;3.40;1.77;;;18.10;99.90;;;;;;4973037;28;20422;-75
2022/07/10 07:39:15;;;;;;;1.80;1.70;;;18.00;99.90;;;;;;4974165;28;20178;-75
2022/07/10 07:41:41;;;;;;;2.70;1.70;;;17.90;99.90;;;;;;4973086;28;20199;-75
2022/07/10 07:44:06;;;;;;;5.87;1.80;;;17.90;99.90;;;;;;4973484;28;20262;-75
2022/07/10 07:46:32;;;;;;;4.23;1.80;;;17.90;99.90;;;;;;4973713;28;20184;-75
2022/07/10 07:48:57;;;;;;;1.87;1.63;;;17.90;99.90;;;;;;4973363;28;20184;-75
2022/07/10 07:51:22;;;;;;;3.43;1.80;;;17.90;99.90;;;;;;4971106;28;20254;-74
2022/07/10 07:53:48;;;;;;;2.30;1.50;;;18.10;99.90;;;;;;4973175;28;20230;-75
2022/07/10 07:56:13;;;;;;;2.83;1.70;;;18.40;99.90;;;;;;4973368;28;20641;-75
2022/07/10 07:58:39;;;;;;;4.07;1.10;;;18.50;99.90;;;;;;4972788;28;20180;-75
2022/07/10 08:01:05;;;;;;;2.17;1.33;;;18.70;99.90;;;;;;4972644;28;20191;-75
2022/07/10 08:03:30;;;;;;;3.90;1.27;;;18.70;99.90;;;;;;4973270;28;20183;-75
2022/07/10 08:05:55;;;;;;;2.80;1.37;;;18.60;99.90;;;;;;4972846;28;20700;-75
2022/07/10 08:08:21;;;;;;;2.23;1.40;;;18.90;99.90;;;;;;4973428;28;20172;-76
2022/07/10 08:10:46;;;;;;;3.10;1.43;;;19.30;99.90;;;;;;4971591;28;20317;-76
2022/07/10 08:13:13;;;;;;;7.03;1.40;;;19.80;99.90;;;;;;4973214;28;20176;-75
2022/07/10 08:15:38;;;;;;;2.13;1.27;;;20.30;99.90;;;;;;4973032;28;20180;-75
2022/07/10 08:18:04;;;;;;;1.47;1.10;;;20.40;99.90;;;;;;4972310;28;20442;-72
2022/07/10 08:20:30;;;;;;;5.23;1.80;;;20.50;99.90;;;;;;4972000;28;20192;-75
2022/07/10 08:22:56;;;;;;;2.40;1.47;;;20.20;99.90;;;;;;4972590;28;20307;-75
2022/07/10 08:25:22;;;;;;;1.20;1.10;;;20.10;99.90;;;;;;4971296;28;20527;-75
2022/07/10 08:27:48;;;;;;;1.40;1.30;;;20.10;99.90;;;;;;4972722;28;20204;-75
2022/07/10 08:30:14;;;;;;;4.67;1.77;;;20.20;99.90;;;;;;4972343;28;20214;-75
2022/07/10 08:32:39;;;;;;;3.23;1.77;;;20.40;99.90;;;;;;4972135;28;20486;-75
2022/07/10 08:35:06;;;;;;;2.17;1.07;;;20.20;99.90;;;;;;4972691;28;20231;-75
2022/07/10 08:37:42;;;;;;;3.00;1.50;;;20.30;99.90;;;;;;4973046;28;20525;-76
2022/07/10 08:40:10;;;;;;;5.63;1.40;;;20.70;99.90;;;;;;4972745;28;20445;-75
2022/07/10 08:42:35;;;;;;;2.70;1.17;;;21.50;99.90;;;;;;4972444;28;20474;-76
2022/07/10 08:45:01;;;;;;;1.53;1.20;;;21.90;99.90;;;;;;4972381;28;20491;-76
2022/07/10 08:47:30;;;;;;;3.33;1.47;;;21.70;99.90;;;;;;4972656;28;20207;-75
2022/07/10 08:49:57;;;;;;;32.37;2.77;;;21.20;99.90;;;;;;4972366;28;20223;-75
2022/07/10 08:52:30;;;;;;;3.13;1.37;;;21.00;99.90;;;;;;4972186;28;20550;-73
2022/07/10 08:54:56;;;;;;;2.93;1.37;;;21.10;99.90;;;;;;4972529;28;20414;-75
2022/07/10 08:57:23;;;;;;;1.47;1.07;;;21.30;99.90;;;;;;4972204;28;20420;-76
2022/07/10 08:59:49;;;;;;;3.07;1.37;;;21.20;99.90;;;;;;4972609;28;20183;-74
2022/07/10 09:02:14;;;;;;;5.70;1.23;;;21.10;99.90;;;;;;4973175;28;20435;-74
2022/07/10 09:04:40;;;;;;;4.63;1.30;;;21.00;99.90;;;;;;4973523;28;20180;-73
2022/07/10 09:07:05;;;;;;;5.43;1.37;;;20.80;99.90;;;;;;4972734;28;20176;-74
2022/07/10 09:09:31;;;;;;;2.70;1.30;;;21.00;99.90;;;;;;4972645;28;20207;-76
2022/07/10 09:11:57;;;;;;;5.43;1.10;;;21.20;99.90;;;;;;4970887;28;20195;-76
2022/07/10 09:14:25;;;;;;;2.57;1.60;;;21.70;99.90;;;;;;4972209;28;20238;-73
2022/07/10 09:16:51;;;;;;;1.30;1.20;;;22.50;99.90;;;;;;4971925;28;20477;-75
2022/07/10 09:19:25;;;;;;;5.70;1.07;;;23.30;99.90;;;;;;4971685;28;20751;-76
2022/07/10 09:22:01;;;;;;;1.60;1.20;;;24.00;99.90;;;;;;4971429;28;20978;-73
2022/07/10 09:24:26;;;;;;;1.30;0.90;;;24.00;99.90;;;;;;4971892;28;20539;-73
2022/07/10 09:27:00;;;;;;;3.43;1.23;;;23.70;99.90;;;;;;4954390;28;20906;-73
2022/07/10 09:29:26;;;;;;;3.47;1.30;;;23.00;99.90;;;;;;4958332;28;20291;-74
2022/07/10 09:31:53;;;;;;;1.77;0.90;;;22.20;99.90;;;;;;4970470;28;20439;-73
2022/07/10 09:34:35;;;;;;;2.10;1.00;;;22.40;99.90;;;;;;4971249;28;20413;-73
2022/07/10 09:37:18;;;;;;;1.40;1.03;;;22.30;99.90;;;;;;4957974;28;20420;-72
2022/07/10 09:39:59;;;;;;;2.93;1.17;;;22.10;99.90;;;;;;4963271;28;20502;-69
2022/07/10 09:42:27;;;;;;;2.07;1.00;;;22.30;99.90;;;;;;4970495;28;20482;-73
2022/07/10 09:45:18;;;;;;;3.97;1.27;;;22.30;99.90;;;;;;4971022;28;20416;-77
2022/07/10 09:47:54;;;;;;;3.20;1.03;;;22.80;99.90;;;;;;4971168;28;20471;-70
2022/07/10 09:50:22;;;;;;;5.53;1.70;;;22.70;99.90;;;;;;4970628;28;20487;-73
2022/07/10 09:52:54;;;;;;;4.40;1.17;;;22.50;99.90;;;;;;4985200;28;20510;-73
2022/07/10 09:55:21;;;;;;;2.73;1.10;;;22.80;99.90;;;;;;4971105;28;20416;-75
2022/07/10 09:57:55;;;;;;;3.73;1.33;;;22.90;99.90;;;;;;4971501;28;20418;-73
2022/07/10 10:00:25;;;;;;;3.30;1.27;;;22.80;99.90;;;;;;4971963;28;20413;-73
2022/07/10 10:02:55;;;;;;;6.63;1.27;;;22.30;99.90;;;;;;4970453;28;20863;-74
2022/07/10 10:05:26;;;;;;;2.80;1.00;;;22.00;99.90;;;;;;4971011;28;20911;-74
2022/07/10 10:07:51;;;;;;;3.63;0.90;;;21.80;99.90;;;;;;4971183;28;20649;-74
2022/07/10 10:10:18;;;;;;;1.83;1.20;;;21.70;99.90;;;;;;4970912;28;20558;-74
2022/07/10 10:12:49;;;;;;;2.83;1.17;;;22.30;99.90;;;;;;4969796;28;20226;-73
2022/07/10 10:15:16;;;;;;;4.17;1.43;;;22.40;99.90;;;;;;4970921;28;20948;-74
2022/07/10 10:17:42;;;;;;;1.00;0.90;;;22.10;99.90;;;;;;4971846;28;20908;-73
2022/07/10 10:23:24;;;;;;;2.43;1.30;;;21.70;99.90;;;;;;4948744;29;20431;-74
2022/07/10 10:25:55;;;;;;;5.03;1.60;;;21.30;99.90;;;;;;4948670;29;20520;-74
2022/07/10 10:28:23;;;;;;;0.87;0.80;;;21.80;99.90;;;;;;4961316;28;20514;-74
2022/07/10 10:30:54;;;;;;;6.33;1.30;;;22.30;99.90;;;;;;4969619;28;20474;-75
2022/07/10 10:33:32;;;;;;;3.93;1.30;;;22.80;99.90;;;;;;4970992;28;20563;-74
2022/07/10 10:35:58;;;;;;;7.10;1.60;;;22.70;99.90;;;;;;4966625;28;20420;-75
2022/07/10 10:38:24;;;;;;;4.60;1.00;;;22.50;99.90;;;;;;4949709;28;20783;-74
2022/07/10 10:40:50;;;;;;;2.83;1.33;;;23.00;99.90;;;;;;4950807;28;20514;-75
2022/07/10 10:43:24;;;;;;;1.97;0.90;;;23.70;99.90;;;;;;4954326;29;20543;-75
2022/07/10 10:45:51;;;;;;;4.20;0.90;;;24.40;99.90;;;;;;4954584;28;20177;-75
2022/07/10 10:48:20;;;;;;;1.20;1.10;;;25.30;99.90;;;;;;4954711;29;20420;-75
2022/07/10 10:50:47;;;;;;;3.33;1.30;;;25.60;99.90;;;;;;4953280;28;20471;-74
2022/07/10 10:53:27;;;;;;;2.70;1.17;;;25.10;99.90;;;;;;4954299;28;20416;-75
2022/07/10 10:56:05;;;;;;;4.60;1.10;;;25.00;99.90;;;;;;4954411;28;20415;-75
2022/07/10 10:58:42;;;;;;;3.37;1.33;;;25.40;99.90;;;;;;4954631;28;20416;-75
2022/07/10 11:01:20;;;;;;;1.50;1.20;;;25.50;99.90;;;;;;4952606;28;20452;-75
2022/07/10 11:04:04;;;;;;;2.37;1.23;;;26.10;99.90;;;;;;4954750;28;20516;-75
2022/07/10 11:06:52;;;;;;;2.80;1.70;;;26.30;99.90;;;;;;4954395;28;20439;-75
2022/07/10 11:09:31;;;;;;;2.70;1.03;;;26.10;99.90;;;;;;4955230;28;20412;-75
2022/07/10 11:12:06;;;;;;;3.93;0.90;;;25.10;99.90;;;;;;4954175;28;20435;-74
2022/07/10 11:14:34;;;;;;;2.00;0.83;;;24.80;99.90;;;;;;4954861;28;20814;-74
2022/07/10 11:17:00;;;;;;;1.23;0.80;;;25.30;99.90;;;;;;4953972;28;20408;-75
2022/07/10 11:19:30;;;;;;;1.67;1.10;;;25.60;99.90;;;;;;4954360;29;20412;-73
2022/07/10 11:22:29;;;;;;;1.57;0.90;;;25.60;99.90;;;;;;4953187;28;20701;-75
2022/07/10 11:25:03;;;;;;;9.43;1.07;;;25.20;99.90;;;;;;4954169;29;20417;-75
2022/07/10 11:27:52;;;;;;;4.53;0.90;;;24.40;99.90;;;;;;4954126;28;20451;-74
2022/07/10 11:30:18;;;;;;;2.60;0.80;;;24.00;99.90;;;;;;4954178;28;20526;-74
2022/07/10 11:32:44;;;;;;;2.37;1.40;;;24.30;99.90;;;;;;4953246;28;20459;-72
2022/07/10 11:35:12;;;;;;;3.17;0.90;;;24.50;99.90;;;;;;4954593;29;20188;-75
2022/07/10 11:37:51;;;;;;;5.13;1.40;;;24.40;99.90;;;;;;4954514;28;20893;-75
2022/07/10 11:40:19;;;;;;;3.27;1.03;;;24.30;99.90;;;;;;4915036;28;21333;-74
2022/07/10 11:42:56;;;;;;;5.20;0.97;;;24.40;99.90;;;;;;4844070;28;20697;-73
2022/07/10 11:45:29;;;;;;;3.80;1.77;;;24.40;99.90;;;;;;4851567;28;21151;-75
2022/07/10 11:47:56;;;;;;;2.07;0.70;;;24.30;99.90;;;;;;4830144;28;21189;-75
2022/07/10 11:50:25;;;;;;;4.50;0.80;;;24.40;99.90;;;;;;4826901;28;21003;-76
2022/07/10 11:52:51;;;;;;;2.20;1.00;;;24.30;99.90;;;;;;4827880;29;20627;-77
2022/07/10 11:55:23;;;;;;;6.03;1.00;;;24.00;99.90;;;;;;4829563;29;21163;-76
2022/07/10 11:57:48;;;;;;;1.97;0.80;;;23.70;99.90;;;;;;4831768;29;20750;-78
2022/07/10 12:00:26;;;;;;;1.80;0.87;;;23.60;99.90;;;;;;4839487;29;20714;-77
2022/07/10 12:02:53;;;;;;;3.23;0.80;;;23.30;99.90;;;;;;4833349;29;20442;-77
2022/07/10 12:05:37;;;;;;;2.13;1.00;;;23.50;99.90;;;;;;4826942;29;20699;-76
2022/07/10 12:08:03;;;;;;;1.50;0.80;;;23.60;99.90;;;;;;4824765;29;20953;-77
2022/07/10 12:10:31;;;;;;;2.07;0.80;;;23.80;99.90;;;;;;4819976;29;20842;-76
2022/07/10 12:13:04;;;;;;;2.70;0.90;;;24.10;99.90;;;;;;4830076;28;20781;-76
2022/07/10 12:15:38;;;;;;;3.30;0.80;;;23.80;99.90;;;;;;4843076;28;20623;-77
2022/07/10 12:18:06;;;;;;;1.27;1.17;;;23.70;99.90;;;;;;4834198;28;20971;-77
2022/07/10 12:20:52;;;;;;;0.80;0.70;;;24.00;99.90;;;;;;4853654;28;20643;-76
2022/07/10 12:23:20;;;;;;;1.90;0.60;;;24.10;99.90;;;;;;4846965;28;20765;-77
2022/07/10 12:25:51;;;;;;;1.63;0.90;;;23.90;99.90;;;;;;4857533;28;20924;-76
2022/07/10 12:28:17;;;;;;;2.87;0.80;;;23.90;99.90;;;;;;4832652;28;20729;-76
2022/07/10 12:30:44;;;;;;;2.33;0.70;;;24.20;99.90;;;;;;4833013;28;20658;-76
2022/07/10 12:33:18;;;;;;;2.47;0.73;;;24.10;99.90;;;;;;4835231;28;20720;-74
2022/07/10 12:35:56;;;;;;;1.70;0.60;;;23.70;99.90;;;;;;4833971;28;20822;-77
2022/07/10 12:38:22;;;;;;;5.23;0.50;;;23.30;99.90;;;;;;4832224;28;20955;-76
2022/07/10 12:40:49;;;;;;;5.10;1.30;;;23.00;99.90;;;;;;4832139;28;20858;-77
2022/07/10 12:43:27;;;;;;;1.30;0.70;;;22.90;99.90;;;;;;4833065;28;20832;-77
2022/07/10 12:46:20;;;;;;;2.43;0.60;;;22.80;99.90;;;;;;4890136;28;20503;-73
2022/07/10 12:49:04;;;;;;;3.90;0.90;;;22.80;99.90;;;;;;4931054;29;20489;-73
2022/07/10 12:51:49;;;;;;;4.40;0.80;;;23.10;99.90;;;;;;4931184;29;21002;-73
2022/07/10 12:54:34;;;;;;;1.43;0.70;;;23.30;99.90;;;;;;4932807;29;20428;-72
2022/07/10 12:57:02;;;;;;;2.50;0.60;;;23.30;99.90;;;;;;4931779;29;20856;-73
2022/07/10 12:59:31;;;;;;;1.00;0.70;;;23.50;99.90;;;;;;4931654;29;20810;-73
2022/07/10 13:01:58;;;;;;;2.43;0.67;;;23.60;99.90;;;;;;4931252;28;20441;-74
2022/07/10 13:04:26;;;;;;;1.20;0.63;;;23.60;99.90;;;;;;4931878;29;20429;-73
2022/07/10 13:06:52;;;;;;;0.90;0.50;;;23.40;99.90;;;;;;4933246;29;20425;-74
2022/07/10 13:09:20;;;;;;;4.53;1.37;;;23.70;99.90;;;;;;4932015;29;20413;-73
2022/07/10 13:11:46;;;;;;;3.00;0.90;;;24.00;99.90;;;;;;4931346;29;20307;-74
2022/07/10 13:14:12;;;;;;;2.60;0.63;;;24.20;99.90;;;;;;4931520;29;20780;-74
2022/07/10 13:16:37;;;;;;;1.17;0.90;;;24.30;99.90;;;;;;4931460;29;20566;-73
2022/07/10 13:19:03;;;;;;;1.80;0.60;;;24.20;99.90;;;;;;4931731;29;20181;-73
2022/07/10 13:21:28;;;;;;;2.90;0.60;;;24.00;99.90;;;;;;4931347;29;20197;-75
2022/07/10 13:23:55;;;;;;;0.87;0.67;;;23.90;99.90;;;;;;4931797;29;20219;-75
2022/07/10 13:26:20;;;;;;;1.53;0.70;;;23.70;99.90;;;;;;4931284;29;20185;-75
2022/07/10 13:28:46;;;;;;;1.70;0.70;;;23.50;99.90;;;;;;4931662;29;21005;-75
2022/07/10 13:31:12;;;;;;;3.33;0.70;;;23.50;99.90;;;;;;4915208;29;20213;-75
2022/07/10 13:33:37;;;;;;;1.33;0.60;;;23.60;99.90;;;;;;4915850;29;20181;-74
2022/07/10 13:36:04;;;;;;;5.40;1.10;;;23.50;99.90;;;;;;4931841;29;20564;-75
2022/07/10 13:38:30;;;;;;;0.80;0.50;;;23.40;99.90;;;;;;4916225;29;20267;-74
2022/07/10 13:40:56;;;;;;;1.63;0.70;;;23.30;99.90;;;;;;4915204;29;20433;-74
2022/07/10 13:43:26;;;;;;;1.27;0.70;;;22.90;99.90;;;;;;4936927;29;20499;-78
2022/07/10 13:45:52;;;;;;;1.83;0.97;;;22.70;99.90;;;;;;4982684;28;20176;-74
2022/07/10 13:48:19;;;;;;;1.50;0.70;;;22.60;99.90;;;;;;4886092;28;21302;-74
2022/07/10 13:50:47;;;;;;;2.50;0.53;;;22.30;99.90;;;;;;4856311;28;20390;-76
2022/07/10 13:53:13;;;;;;;1.80;0.70;;;22.00;99.90;;;;;;4853452;28;21033;-79
2022/07/10 13:55:39;;;;;;;2.60;0.60;;;21.80;99.90;;;;;;4813064;28;20811;-75
2022/07/10 13:58:05;;;;;;;4.10;1.27;;;21.80;99.90;;;;;;4803596;29;20775;-76
2022/07/10 14:00:31;;;;;;;2.90;1.60;;;22.00;99.90;;;;;;4819843;28;20694;-72
2022/07/10 14:02:57;;;;;;;3.10;1.90;;;22.40;99.90;;;;;;4833052;28;20885;-69
2022/07/10 14:05:24;;;;;;;0.90;0.67;;;22.40;99.90;;;;;;4834312;28;20534;-74
2022/07/10 14:07:49;;;;;;;2.00;0.70;;;22.10;99.90;;;;;;4834364;28;21197;-72
2022/07/10 14:10:15;;;;;;;1.93;1.63;;;22.10;99.90;;;;;;4831144;28;20653;-72
2022/07/10 14:12:42;;;;;;;0.80;0.70;;;21.80;99.90;;;;;;4833149;28;20365;-70
2022/07/10 14:15:08;;;;;;;1.10;0.70;;;22.00;99.90;;;;;;4807716;29;20537;-74
2022/07/10 14:17:34;;;;;;;1.33;0.80;;;22.10;99.90;;;;;;4817057;28;20857;-71
2022/07/10 14:20:00;;;;;;;2.20;0.73;;;22.00;99.90;;;;;;4837815;28;20782;-71
2022/07/10 14:22:26;;;;;;;2.20;0.80;;;21.90;99.90;;;;;;4834019;28;20591;-69
2022/07/10 14:24:53;;;;;;;2.23;0.80;;;21.70;99.90;;;;;;4835366;28;20480;-70
2022/07/10 14:27:19;;;;;;;6.63;0.80;;;21.70;99.90;;;;;;4823112;28;20786;-71